createdAt,value
2017-12-19T00:00:42.621Z,17.30
2017-12-19T00:03:11.556Z,16.90
2017-12-19T00:05:40.506Z,17.95
2017-12-19T00:08:09.451Z,16.50
2017-12-19T00:10:39.157Z,16.48
2017-12-19T00:13:08.860Z,16.65
2017-12-19T00:15:38.894Z,18.87
2017-12-19T00:18:08.166Z,15.73
2017-12-19T00:20:37.406Z,17.75
2017-12-19T00:23:06.696Z,17.23
2017-12-19T00:25:35.951Z,15.90
2017-12-19T00:28:05.221Z,15.90
2017-12-19T00:30:34.479Z,14.95
2017-12-19T00:33:04.510Z,16.10
2017-12-19T00:35:33.774Z,15.25
2017-12-19T00:38:03.032Z,16.25
2017-12-19T00:40:32.280Z,15.52
2017-12-19T00:43:01.537Z,17.90
2017-12-19T00:45:30.805Z,14.52
2017-12-19T00:48:00.812Z,16.33
2017-12-19T00:50:30.091Z,15.57
2017-12-19T00:52:59.344Z,17.37
2017-12-19T00:55:28.604Z,16.35
2017-12-19T00:57:57.840Z,16.23
2017-12-19T01:00:27.109Z,16.55
2017-12-19T01:02:57.129Z,18.60
2017-12-19T01:05:27.182Z,18.35
2017-12-19T01:07:56.440Z,16.20
2017-12-19T01:10:26.467Z,15.85
2017-12-19T01:12:55.743Z,14.57
2017-12-19T01:15:24.992Z,17.33
2017-12-19T01:17:54.243Z,16.08
2017-12-19T01:20:23.598Z,15.20
2017-12-19T01:22:53.582Z,15.82
2017-12-19T01:25:22.850Z,16.45
2017-12-19T01:27:52.092Z,16.23
2017-12-19T01:30:21.384Z,14.90
2017-12-19T01:32:50.650Z,16.17
2017-12-19T01:35:19.915Z,16.40
2017-12-19T01:37:49.259Z,16.15
2017-12-19T01:40:18.536Z,16.75
2017-12-19T01:42:47.794Z,19.10
2017-12-19T01:45:17.077Z,17.30
2017-12-19T01:47:46.322Z,17.75
2017-12-19T01:50:15.593Z,18.10
2017-12-19T01:52:44.887Z,18.25
2017-12-19T01:55:14.151Z,17.33
2017-12-19T01:57:43.422Z,17.55
2017-12-19T02:00:12.673Z,17.65
2017-12-19T02:02:42.719Z,16.80
2017-12-19T02:05:11.971Z,17.90
2017-12-19T02:07:41.233Z,17.45
2017-12-19T02:10:10.495Z,17.55
2017-12-19T02:12:39.752Z,16.70
2017-12-19T02:15:09.021Z,17.17
2017-12-19T02:17:38.286Z,18.40
2017-12-19T02:20:08.313Z,18.40
2017-12-19T02:22:37.574Z,19.20
2017-12-19T02:25:06.881Z,18.02
2017-12-19T02:27:36.164Z,18.75
2017-12-19T02:30:05.458Z,21.15
2017-12-19T02:32:34.710Z,21.35
2017-12-19T02:35:04.078Z,20.45
2017-12-19T02:37:33.339Z,22.50
2017-12-19T02:40:02.598Z,20.80
2017-12-19T02:42:50.227Z,20.27
2017-12-19T02:45:20.271Z,20.08
2017-12-19T02:47:49.520Z,19.83
2017-12-19T02:50:18.836Z,22.37
2017-12-19T02:52:48.851Z,20.95
2017-12-19T02:55:18.886Z,19.98
2017-12-19T02:57:48.928Z,21.48
2017-12-19T03:00:18.180Z,19.92
2017-12-19T03:02:47.438Z,21.10
2017-12-19T03:05:16.702Z,22.67
2017-12-19T03:07:45.991Z,21.30
2017-12-19T03:10:16.015Z,20.45
2017-12-19T03:12:45.307Z,21.02
2017-12-19T03:15:15.338Z,20.85
2017-12-19T03:17:44.614Z,20.20
2017-12-19T03:20:14.644Z,21.42
2017-12-19T03:22:44.667Z,19.27
2017-12-19T03:25:13.930Z,19.62
2017-12-19T03:27:43.201Z,20.30
2017-12-19T03:30:12.478Z,21.27
2017-12-19T03:32:41.827Z,21.10
2017-12-19T03:35:11.094Z,21.05
2017-12-19T03:37:40.398Z,21.50
2017-12-19T03:40:09.619Z,22.80
2017-12-19T03:42:39.606Z,22.08
2017-12-19T03:45:08.873Z,20.95
2017-12-19T03:47:38.152Z,22.37
2017-12-19T03:50:07.417Z,22.75
2017-12-19T03:52:36.673Z,21.65
2017-12-19T03:55:05.971Z,21.48
2017-12-19T03:57:35.278Z,23.20
2017-12-19T04:00:04.545Z,22.08
2017-12-19T04:02:33.820Z,22.95
2017-12-19T04:05:03.114Z,23.83
2017-12-19T04:07:32.375Z,23.48
2017-12-19T04:10:02.412Z,25.95
2017-12-19T04:12:31.678Z,23.60
2017-12-19T04:15:00.965Z,26.45
2017-12-19T04:17:30.345Z,24.73
2017-12-19T04:19:59.580Z,25.35
2017-12-19T04:22:29.638Z,25.48
2017-12-19T04:24:58.895Z,24.33
2017-12-19T04:27:28.140Z,25.15
2017-12-19T04:29:57.428Z,24.77
2017-12-19T04:32:26.698Z,23.95
2017-12-19T04:34:56.713Z,26.55
2017-12-19T04:37:26.005Z,24.87
2017-12-19T04:39:55.278Z,26.00
2017-12-19T04:42:24.522Z,26.87
2017-12-19T04:44:53.821Z,25.10
2017-12-19T04:47:23.140Z,25.05
2017-12-19T04:49:52.752Z,24.77
2017-12-19T04:52:22.005Z,27.62
2017-12-19T04:54:51.277Z,25.37
2017-12-19T04:57:20.564Z,23.83
2017-12-19T04:59:49.820Z,25.60
2017-12-19T05:02:19.862Z,25.50
2017-12-19T05:04:49.138Z,25.95
2017-12-19T05:07:19.160Z,24.37
2017-12-19T05:09:48.430Z,25.35
2017-12-19T05:12:17.704Z,25.02
2017-12-19T05:14:46.968Z,27.67
2017-12-19T05:17:16.221Z,27.42
2017-12-19T05:19:46.394Z,26.52
2017-12-19T05:22:15.661Z,25.17
2017-12-19T05:24:44.924Z,26.00
2017-12-19T05:27:14.174Z,28.30
2017-12-19T05:29:43.440Z,27.23
2017-12-19T05:32:12.702Z,25.37
2017-12-19T05:34:41.987Z,27.33
2017-12-19T05:37:11.265Z,24.77
2017-12-19T05:39:40.549Z,27.80
2017-12-19T05:42:09.826Z,26.42
2017-12-19T05:44:39.096Z,26.85
2017-12-19T05:47:08.347Z,25.85
2017-12-19T05:49:37.633Z,26.25
2017-12-19T05:52:06.894Z,26.65
2017-12-19T05:54:36.160Z,25.70
2017-12-19T05:57:06.187Z,25.60
2017-12-19T05:59:36.243Z,25.30
2017-12-19T06:02:05.512Z,25.17
2017-12-19T06:04:35.536Z,24.17
2017-12-19T06:07:04.805Z,24.77
2017-12-19T06:09:34.090Z,29.12
2017-12-19T06:12:03.361Z,24.65
2017-12-19T06:14:32.612Z,24.80
2017-12-19T06:17:02.643Z,26.48
2017-12-19T06:19:31.929Z,26.23
2017-12-19T06:22:01.954Z,24.85
2017-12-19T06:24:31.222Z,27.48
2017-12-19T06:27:00.476Z,28.62
2017-12-19T06:29:29.761Z,25.75
2017-12-19T06:31:59.772Z,28.75
2017-12-19T06:34:29.049Z,27.10
2017-12-19T06:36:58.355Z,28.27
2017-12-19T06:39:27.645Z,28.05
2017-12-19T06:41:56.899Z,25.40
2017-12-19T06:44:26.184Z,26.45
2017-12-19T06:46:55.437Z,28.42
2017-12-19T06:49:24.693Z,27.58
2017-12-19T06:51:53.976Z,25.52
2017-12-19T06:54:23.235Z,28.08
2017-12-19T06:56:52.502Z,28.00
2017-12-19T06:59:21.778Z,27.83
2017-12-19T07:01:51.040Z,26.55
2017-12-19T07:04:20.313Z,24.70
2017-12-19T07:06:49.562Z,25.67
2017-12-19T07:09:18.819Z,24.83
2017-12-19T07:11:48.085Z,25.33
2017-12-19T07:14:17.359Z,25.15
2017-12-19T07:16:47.382Z,25.25
2017-12-19T07:19:17.403Z,26.95
2017-12-19T07:21:46.677Z,25.55
2017-12-19T07:24:15.936Z,27.52
2017-12-19T07:26:45.194Z,24.98
2017-12-19T07:29:15.227Z,26.73
2017-12-19T07:31:44.484Z,26.52
2017-12-19T07:34:13.737Z,28.27
2017-12-19T07:36:43.016Z,25.42
2017-12-19T07:39:12.267Z,27.05
2017-12-19T07:41:41.531Z,26.30
2017-12-19T07:44:10.796Z,27.30
2017-12-19T07:46:40.813Z,26.23
2017-12-19T07:49:10.090Z,27.05
2017-12-19T07:51:39.345Z,28.17
2017-12-19T07:54:08.622Z,26.90
2017-12-19T07:56:38.633Z,25.58
2017-12-19T07:59:07.898Z,24.25
2017-12-19T08:01:37.178Z,25.48
2017-12-19T08:04:06.442Z,28.20
2017-12-19T08:06:35.724Z,24.37
2017-12-19T08:09:05.756Z,25.92
2017-12-19T08:11:35.788Z,25.90
2017-12-19T08:14:05.053Z,23.65
2017-12-19T08:16:34.322Z,26.17
2017-12-19T08:19:03.575Z,24.50
2017-12-19T08:21:33.599Z,25.50
2017-12-19T08:24:02.871Z,26.37
2017-12-19T08:26:32.157Z,25.55
2017-12-19T08:29:01.411Z,26.33
2017-12-19T08:31:30.665Z,23.60
2017-12-19T08:33:59.920Z,27.40
2017-12-19T08:36:29.208Z,26.73
2017-12-19T08:38:58.465Z,26.58
2017-12-19T08:41:28.498Z,26.23
2017-12-19T08:43:58.520Z,25.62
2017-12-19T08:46:28.548Z,28.05
2017-12-19T08:48:57.807Z,25.77
2017-12-19T08:51:27.052Z,29.77
2017-12-19T08:53:56.323Z,28.70
2017-12-19T08:56:26.353Z,27.55
2017-12-19T08:58:55.602Z,27.05
2017-12-19T09:01:24.867Z,27.70
2017-12-19T09:03:54.129Z,29.70
2017-12-19T09:06:23.414Z,27.10
2017-12-19T09:08:52.677Z,27.05
2017-12-19T09:11:21.930Z,30.62
2017-12-19T09:13:51.992Z,28.00
2017-12-19T09:16:21.244Z,29.05
2017-12-19T09:18:51.275Z,31.37
2017-12-19T09:21:21.292Z,27.75
2017-12-19T09:23:51.334Z,29.00
2017-12-19T09:26:20.612Z,28.23
2017-12-19T09:28:50.637Z,25.02
2017-12-19T09:31:19.915Z,27.60
2017-12-19T09:33:49.946Z,26.42
2017-12-19T09:36:19.986Z,30.10
2017-12-19T09:38:49.241Z,27.85
2017-12-19T09:41:18.484Z,29.00
2017-12-19T09:43:47.760Z,27.90
2017-12-19T09:46:17.371Z,26.10
2017-12-19T09:48:47.409Z,27.45
2017-12-19T09:51:16.678Z,29.10
2017-12-19T09:53:46.709Z,28.67
2017-12-19T09:56:15.978Z,27.30
2017-12-19T09:58:45.229Z,25.92
2017-12-19T10:01:14.485Z,28.23
2017-12-19T10:03:43.754Z,30.70
2017-12-19T10:06:13.005Z,30.00
2017-12-19T10:08:42.279Z,31.67
2017-12-19T10:11:11.528Z,31.80
2017-12-19T10:13:40.773Z,29.52
2017-12-19T10:16:10.041Z,27.98
2017-12-19T10:18:54.018Z,25.85
2017-12-19T10:21:23.278Z,25.62
2017-12-19T10:23:52.537Z,26.02
2017-12-19T10:26:21.811Z,25.23
2017-12-19T10:28:51.069Z,24.23
2017-12-19T10:31:20.364Z,28.70
2017-12-19T10:33:49.605Z,25.55
2017-12-19T10:36:18.866Z,24.95
2017-12-19T10:38:48.155Z,24.90
2017-12-19T10:41:17.455Z,24.90
2017-12-19T10:43:46.655Z,22.23
2017-12-19T10:46:15.910Z,22.85
2017-12-19T10:48:45.292Z,24.50
2017-12-19T10:51:14.562Z,24.73
2017-12-19T10:53:43.827Z,24.70
2017-12-19T10:56:13.861Z,26.00
2017-12-19T10:58:44.041Z,25.95
2017-12-19T11:01:13.298Z,23.45
2017-12-19T11:03:42.625Z,26.50
2017-12-19T11:06:11.878Z,25.35
2017-12-19T11:08:41.129Z,26.00
2017-12-19T11:11:10.418Z,26.10
2017-12-19T11:13:39.664Z,26.20
2017-12-19T11:16:09.721Z,24.20
2017-12-19T11:18:38.982Z,24.70
2017-12-19T11:21:09.005Z,25.98
2017-12-19T11:23:38.265Z,25.45
2017-12-19T11:26:07.525Z,23.70
2017-12-19T11:28:36.791Z,24.80
2017-12-19T11:31:06.047Z,24.70
2017-12-19T11:33:35.312Z,26.35
2017-12-19T11:36:04.578Z,27.98
2017-12-19T11:38:33.850Z,25.58
2017-12-19T11:41:03.168Z,23.58
2017-12-19T11:43:32.435Z,25.33
2017-12-19T11:46:01.691Z,25.90
2017-12-19T11:48:31.710Z,26.95
2017-12-19T11:51:01.734Z,28.42
2017-12-19T11:53:31.768Z,30.05
2017-12-19T11:56:01.045Z,30.27
2017-12-19T11:58:30.307Z,28.55
2017-12-19T12:00:59.557Z,32.42
2017-12-19T12:03:28.808Z,32.40
2017-12-19T12:05:58.095Z,30.58
2017-12-19T12:08:28.199Z,32.30
2017-12-19T12:10:57.468Z,29.92
2017-12-19T12:13:27.526Z,31.87
2017-12-19T12:15:56.797Z,32.22
2017-12-19T12:18:26.077Z,31.42
2017-12-19T12:20:56.092Z,30.33
2017-12-19T12:23:25.364Z,30.55
2017-12-19T12:25:54.618Z,31.20
2017-12-19T12:28:23.868Z,27.45
2017-12-19T12:30:53.119Z,28.67
2017-12-19T12:33:23.164Z,25.17
2017-12-19T12:35:52.439Z,22.70
2017-12-19T12:38:21.706Z,25.00
2017-12-19T12:40:51.730Z,23.60
2017-12-19T12:43:21.786Z,24.50
2017-12-19T12:45:51.069Z,22.80
2017-12-19T12:48:20.334Z,23.05
2017-12-19T12:50:49.602Z,22.80
2017-12-19T12:53:18.871Z,20.17
2017-12-19T12:55:48.160Z,21.08
2017-12-19T12:58:17.420Z,21.08
2017-12-19T13:00:46.668Z,22.42
2017-12-19T13:03:15.938Z,22.45
2017-12-19T13:05:45.230Z,21.67
2017-12-19T13:08:14.489Z,21.48
2017-12-19T13:10:43.742Z,19.65
2017-12-19T13:13:13.772Z,17.77
2017-12-19T13:15:43.024Z,17.55
2017-12-19T13:18:12.288Z,18.48
2017-12-19T13:20:41.544Z,16.25
2017-12-19T13:23:11.569Z,16.50
2017-12-19T13:25:40.854Z,16.30
2017-12-19T13:28:10.093Z,18.58
2017-12-19T13:30:39.394Z,16.45
2017-12-19T13:33:08.651Z,18.35
2017-12-19T13:35:37.908Z,19.30
2017-12-19T13:38:07.965Z,19.30
2017-12-19T13:40:38.013Z,18.90
2017-12-19T13:43:07.264Z,20.45
2017-12-19T13:45:36.532Z,21.37
2017-12-19T13:48:05.771Z,18.62
2017-12-19T13:50:35.021Z,18.95
2017-12-19T13:53:04.290Z,20.17
2017-12-19T13:55:34.302Z,21.65
2017-12-19T13:58:03.586Z,20.83
2017-12-19T14:00:32.825Z,22.40
2017-12-19T14:03:02.090Z,20.80
2017-12-19T14:05:31.366Z,18.30
2017-12-19T14:08:00.625Z,21.33
2017-12-19T14:10:30.648Z,20.15
2017-12-19T14:12:59.896Z,21.95
2017-12-19T14:15:29.241Z,23.75
2017-12-19T14:17:59.279Z,20.40
2017-12-19T14:20:28.525Z,19.90
2017-12-19T14:22:57.787Z,22.67
2017-12-19T14:25:27.039Z,22.35
2017-12-19T14:27:57.136Z,22.05
2017-12-19T14:30:26.372Z,23.33
2017-12-19T14:32:55.620Z,22.95
2017-12-19T14:35:24.879Z,21.62
2017-12-19T14:37:54.136Z,22.70
2017-12-19T14:40:23.400Z,21.62
2017-12-19T14:42:52.660Z,23.12
2017-12-19T14:45:22.700Z,23.20
2017-12-19T14:47:51.974Z,24.35
2017-12-19T14:50:21.235Z,27.37
2017-12-19T14:52:50.494Z,24.20
2017-12-19T14:55:19.777Z,24.30
2017-12-19T14:57:49.810Z,24.65
2017-12-19T15:00:19.077Z,22.90
2017-12-19T15:02:49.101Z,21.80
2017-12-19T15:05:19.140Z,22.05
2017-12-19T15:07:48.415Z,23.00
2017-12-19T15:10:18.425Z,21.37
2017-12-19T15:12:47.678Z,21.83
2017-12-19T15:15:16.940Z,20.30
2017-12-19T15:17:46.948Z,22.08
2017-12-19T15:20:16.220Z,22.37
2017-12-19T15:22:46.287Z,20.37
2017-12-19T15:25:17.354Z,19.23
2017-12-19T15:27:47.561Z,18.55
2017-12-19T15:30:17.740Z,21.20
2017-12-19T15:32:47.011Z,22.37
2017-12-19T15:35:16.277Z,22.85
2017-12-19T15:37:45.518Z,21.10
2017-12-19T15:40:14.772Z,24.85
2017-12-19T15:42:44.027Z,24.58
2017-12-19T15:45:13.298Z,27.08
2017-12-19T15:47:42.557Z,24.60
2017-12-19T15:50:12.589Z,23.98
2017-12-19T15:52:41.859Z,25.92
2017-12-19T15:55:11.890Z,26.10
2017-12-19T15:57:41.934Z,24.98
2017-12-19T16:00:11.193Z,23.42
2017-12-19T16:02:41.266Z,23.33
2017-12-19T16:05:10.570Z,22.95
2017-12-19T16:07:39.821Z,20.90
2017-12-19T16:10:09.847Z,24.25
2017-12-19T16:12:39.872Z,24.80
2017-12-19T16:15:09.125Z,25.35
2017-12-19T16:17:38.407Z,25.30
2017-12-19T16:20:07.662Z,22.60
2017-12-19T16:22:37.705Z,21.65
2017-12-19T16:25:06.991Z,21.50
2017-12-19T16:27:36.270Z,21.65
2017-12-19T16:30:06.286Z,24.08
2017-12-19T16:32:36.477Z,21.92
2017-12-19T16:35:05.727Z,20.83
2017-12-19T16:37:35.017Z,17.75
2017-12-19T16:40:05.046Z,18.27
2017-12-19T16:42:34.321Z,21.48
2017-12-19T16:45:04.365Z,20.45
2017-12-19T16:47:33.613Z,21.90
2017-12-19T16:50:02.892Z,22.02
2017-12-19T16:52:32.148Z,24.98
2017-12-19T16:55:01.399Z,23.92
2017-12-19T16:57:30.645Z,23.12
2017-12-19T17:00:00.681Z,23.92
2017-12-19T17:02:29.941Z,22.73
2017-12-19T17:04:59.192Z,24.70
2017-12-19T17:07:28.448Z,24.50
2017-12-19T17:09:57.749Z,22.62
2017-12-19T17:12:27.773Z,25.15
2017-12-19T17:14:57.896Z,24.48
2017-12-19T17:17:27.222Z,22.48
2017-12-19T17:19:56.486Z,22.27
2017-12-19T17:22:25.787Z,23.60
2017-12-19T17:24:55.799Z,23.48
2017-12-19T17:27:25.840Z,24.33
2017-12-19T17:29:55.103Z,24.00
2017-12-19T17:32:24.351Z,22.50
2017-12-19T17:34:53.614Z,24.33
2017-12-19T17:37:22.892Z,20.60
2017-12-19T17:39:52.151Z,24.40
2017-12-19T17:42:21.410Z,23.55
2017-12-19T17:44:51.440Z,24.23
2017-12-19T17:47:21.477Z,22.48
2017-12-19T17:49:50.734Z,24.67
2017-12-19T17:52:20.781Z,25.65
2017-12-19T17:54:50.837Z,23.10
2017-12-19T17:57:20.061Z,23.98
2017-12-19T17:59:49.332Z,24.67
2017-12-19T18:02:18.605Z,29.23
2017-12-19T18:04:47.925Z,29.00
2017-12-19T18:07:17.222Z,29.80
2017-12-19T18:09:48.736Z,28.25
2017-12-19T18:12:18.138Z,24.30
2017-12-19T18:14:48.747Z,23.95
2017-12-19T18:17:19.293Z,23.85
2017-12-19T18:19:48.554Z,25.05
2017-12-19T18:22:17.837Z,23.90
2017-12-19T18:24:47.241Z,22.90
2017-12-19T18:27:17.746Z,25.02
2017-12-19T18:29:53.661Z,23.75
2017-12-19T18:32:23.305Z,23.80
2017-12-19T18:34:52.595Z,25.02
2017-12-19T18:37:22.628Z,22.98
2017-12-19T18:39:54.001Z,22.85
2017-12-19T18:42:40.165Z,21.08
2017-12-19T18:45:10.483Z,23.17
2017-12-19T18:47:41.130Z,22.98
2017-12-19T18:50:10.713Z,24.17
2017-12-19T18:52:40.279Z,21.73
2017-12-19T18:55:09.643Z,20.85
2017-12-19T18:57:39.596Z,22.90
2017-12-19T19:00:09.889Z,22.30
2017-12-19T19:02:39.224Z,24.30
2017-12-19T19:05:08.548Z,26.23
2017-12-19T19:07:39.875Z,23.95
2017-12-19T19:10:10.443Z,24.42
2017-12-19T19:12:39.790Z,24.00
2017-12-19T19:15:10.098Z,25.52
2017-12-19T19:17:40.642Z,24.05
2017-12-19T19:20:09.935Z,23.20
2017-12-19T19:22:39.196Z,24.37
2017-12-19T19:25:09.217Z,23.25
2017-12-19T19:27:39.240Z,23.50
2017-12-19T19:30:08.517Z,22.90
2017-12-19T19:32:37.775Z,23.65
2017-12-19T19:35:07.073Z,20.60
2017-12-19T19:37:36.354Z,20.33
2017-12-19T19:40:05.616Z,21.20
2017-12-19T19:42:34.896Z,21.27
2017-12-19T19:45:04.195Z,21.35
2017-12-19T19:47:33.449Z,20.70
2017-12-19T19:50:02.715Z,21.17
2017-12-19T19:52:31.964Z,18.05
2017-12-19T19:55:01.222Z,16.17
2017-12-19T19:57:31.832Z,14.60
2017-12-19T20:00:01.067Z,15.10
2017-12-19T20:02:30.369Z,18.85
2017-12-19T20:04:59.671Z,17.40
2017-12-19T20:07:28.925Z,17.65
2017-12-19T20:09:58.221Z,16.33
2017-12-19T20:12:27.488Z,18.58
2017-12-19T20:14:56.743Z,17.60
2017-12-19T20:17:26.014Z,18.00
2017-12-19T20:19:55.274Z,17.65
2017-12-19T20:22:24.547Z,18.45
2017-12-19T20:24:55.366Z,19.27
2017-12-19T20:27:24.626Z,20.40
2017-12-19T20:29:53.870Z,20.65
2017-12-19T20:32:23.200Z,19.30
2017-12-19T20:34:52.476Z,18.50
2017-12-19T20:37:21.729Z,17.98
2017-12-19T20:39:50.984Z,17.10
2017-12-19T20:42:21.005Z,18.55
2017-12-19T20:44:51.021Z,18.37
2017-12-19T20:47:21.046Z,17.73
2017-12-19T20:49:51.176Z,16.62
2017-12-19T20:52:20.445Z,17.95
2017-12-19T20:54:49.722Z,17.67
2017-12-19T20:57:18.983Z,17.75
2017-12-19T20:59:48.272Z,17.52
2017-12-19T21:02:19.193Z,18.42
2017-12-19T21:04:49.229Z,16.27
2017-12-19T21:07:18.498Z,16.70
2017-12-19T21:09:47.834Z,19.00
2017-12-19T21:12:17.112Z,16.17
2017-12-19T21:14:47.175Z,14.93
2017-12-19T21:17:16.393Z,15.88
2017-12-19T21:19:45.647Z,15.38
2017-12-19T21:22:14.913Z,15.48
2017-12-19T21:24:44.223Z,16.33
2017-12-19T21:27:13.453Z,16.10
2017-12-19T21:29:42.718Z,16.23
2017-12-19T21:32:12.805Z,15.02
2017-12-19T21:34:42.105Z,13.80
2017-12-19T21:37:11.354Z,15.80
2017-12-19T21:39:40.631Z,14.13
2017-12-19T21:42:10.652Z,12.73
2017-12-19T21:44:40.691Z,14.95
2017-12-19T21:47:10.858Z,15.38
2017-12-19T21:49:40.107Z,14.13
2017-12-19T21:52:09.376Z,13.68
2017-12-19T21:54:38.640Z,13.73
2017-12-19T21:57:07.896Z,15.35
2017-12-19T21:59:37.939Z,18.00
2017-12-19T22:02:07.197Z,14.30
2017-12-19T22:04:36.444Z,15.63
2017-12-19T22:07:05.735Z,17.52
2017-12-19T22:09:34.998Z,16.98
2017-12-19T22:12:04.308Z,17.15
2017-12-19T22:14:33.526Z,16.75
2017-12-19T22:17:02.782Z,12.77
2017-12-19T22:19:32.030Z,14.73
2017-12-19T22:22:01.307Z,14.45
2017-12-19T22:24:31.312Z,13.82
2017-12-19T22:27:01.350Z,12.93
2017-12-19T22:29:30.633Z,14.15
2017-12-19T22:32:00.673Z,12.52
2017-12-19T22:34:29.918Z,13.30
2017-12-19T22:36:59.183Z,12.35
2017-12-19T22:39:28.442Z,12.85
2017-12-19T22:41:58.471Z,12.37
2017-12-19T22:44:28.493Z,12.10
2017-12-19T22:46:58.622Z,12.75
2017-12-19T22:49:27.881Z,11.45
2017-12-19T22:51:57.141Z,13.20
2017-12-19T22:54:26.402Z,11.20
2017-12-19T22:56:56.436Z,11.35
2017-12-19T22:59:25.708Z,11.50
2017-12-19T23:01:54.977Z,10.60
2017-12-19T23:04:24.244Z,11.15
2017-12-19T23:06:53.518Z,11.88
2017-12-19T23:09:23.532Z,11.32
2017-12-19T23:11:53.578Z,12.60
2017-12-19T23:14:22.837Z,11.45
2017-12-19T23:16:52.082Z,11.25
2017-12-19T23:19:21.373Z,11.95
2017-12-19T23:21:50.634Z,12.77
2017-12-19T23:24:19.877Z,11.63
2017-12-19T23:26:49.154Z,11.93
2017-12-19T23:29:19.180Z,13.30
2017-12-19T23:31:48.444Z,13.75
2017-12-19T23:34:17.701Z,12.32
2017-12-19T23:36:46.988Z,13.73
2017-12-19T23:39:16.249Z,11.88
2017-12-19T23:41:45.522Z,11.65
2017-12-19T23:44:14.772Z,11.77
2017-12-19T23:46:44.797Z,11.48
2017-12-19T23:49:14.044Z,11.60
2017-12-19T23:51:43.308Z,11.82
2017-12-19T23:54:12.586Z,11.82
2017-12-19T23:56:42.611Z,12.27
2017-12-19T23:59:11.880Z,12.93
